Time;durP1;ratioP1;P1;durP2;ratioP2;P2;SDS_P1;SDS_P2;PMS_P1;PMS_P2;Temp;Humidity;BMP_temperature;BMP_pressure;BME280_temperature;BME280_humidity;BME280_pressure;Samples;Min_cycle;Max_cycle;Signal;HPM_P1;HPM_P2
2021/06/07 00:00:47;;;;;;;7.09;3.58;;;;;;;16.65;71.30;98927.84;390585;102;1962040;-70
2021/06/07 00:02:27;;;;;;;7.39;3.59;;;;;;;16.66;71.42;98925.93;390219;102;1961948;-72
2021/06/07 00:04:05;;;;;;;6.03;3.94;;;;;;;16.62;71.42;98933.83;389932;103;1961831;-71
2021/06/07 00:05:43;;;;;;;7.19;3.71;;;;;;;16.59;71.42;98928.91;379647;102;2873019;-71
2021/06/07 00:07:21;;;;;;;6.05;3.63;;;;;;;16.48;71.74;98921.72;388999;102;1964034;-69
2021/06/07 00:09:22;;;;;;;8.03;4.18;;;;;;;16.54;72.05;98914.39;378427;106;2952984;-70
2021/06/07 00:11:00;;;;;;;7.39;3.56;;;;;;;16.47;71.84;98926.36;362164;108;2845990;-71
2021/06/07 00:12:39;;;;;;;6.20;3.72;;;;;;;16.46;71.62;98934.81;367978;108;1961963;-71
2021/06/07 00:14:40;;;;;;;7.73;3.40;;;;;;;16.51;71.98;98934.01;343265;106;2752041;-72
2021/06/07 00:16:18;;;;;;;6.38;3.07;;;;;;;16.37;72.14;98925.47;369053;108;1963049;-72
2021/06/07 00:17:58;;;;;;;7.26;3.39;;;;;;;16.34;72.08;98929.54;364912;110;1962921;-72
2021/06/07 00:19:39;;;;;;;7.34;3.58;;;;;;;16.35;72.20;98933.89;363464;110;1965015;-71
2021/06/07 00:21:28;;;;;;;5.54;3.38;;;;;;;16.56;72.09;98923.95;358825;104;2893995;-72
2021/06/07 00:23:11;;;;;;;8.09;4.44;;;;;;;16.35;72.26;98922.99;368420;107;1961935;-72
2021/06/07 00:24:57;;;;;;;5.94;3.89;;;;;;;16.44;72.62;98929.61;367303;101;2710898;-71
2021/06/07 00:26:37;;;;;;;8.74;4.09;;;;;;;16.38;72.52;98930.67;388484;102;1962984;-71
2021/06/07 00:28:23;;;;;;;8.44;4.41;;;;;;;16.48;72.07;98930.75;361688;100;2190921;-71
2021/06/07 00:30:02;;;;;;;8.63;4.22;;;;;;;16.39;72.02;98935.03;390402;103;1961982;-70
2021/06/07 00:31:50;;;;;;;8.04;4.49;;;;;;;16.47;72.13;98934.53;339248;108;2698975;-71
2021/06/07 00:33:29;;;;;;;7.82;4.97;;;;;;;16.33;72.23;98935.27;320097;113;2620977;-70
2021/06/07 00:35:17;;;;;;;7.87;4.43;;;;;;;16.42;72.57;98930.96;387522;104;2046988;-70
2021/06/07 00:37:02;;;;;;;7.22;4.46;;;;;;;16.43;72.58;98930.71;408239;101;2047029;-71
2021/06/07 00:39:00;;;;;;;7.48;4.23;;;;;;;16.34;72.48;98936.91;390328;103;1961822;-72
2021/06/07 00:40:40;;;;;;;8.54;4.91;;;;;;;16.24;72.67;98937.64;388505;103;1961915;-70
2021/06/07 00:42:18;;;;;;;10.78;4.99;;;;;;;16.21;72.85;98927.27;390346;103;1964307;-69
2021/06/07 00:44:21;;;;;;;8.79;4.57;;;;;;;16.23;73.17;98933.28;390845;104;2047880;-70
2021/06/07 00:45:59;;;;;;;;;;;;;;;16.10;73.11;98928.27;378840;106;1961960;-70
2021/06/07 00:47:39;;;;;;;7.34;4.15;;;;;;;16.06;73.02;98930.67;373929;105;1960971;-69
2021/06/07 00:49:25;;;;;;;8.31;4.69;;;;;;;16.18;73.03;98928.61;350049;107;2612959;-69
2021/06/07 00:51:09;;;;;;;9.28;5.87;;;;;;;16.03;73.01;98932.02;368233;107;1962023;-69
2021/06/07 00:53:03;;;;;;;8.74;5.24;;;;;;;16.02;73.08;98933.11;367259;109;1965951;-71
2021/06/07 00:54:48;;;;;;;8.67;5.79;;;;;;;16.14;73.19;98932.10;382180;106;2036894;-71
2021/06/07 00:56:27;;;;;;;9.33;5.49;;;;;;;16.00;73.17;98927.09;356190;108;1962071;-70
2021/06/07 00:58:08;;;;;;;10.18;5.33;;;;;;;16.00;72.92;98937.98;362391;109;1964000;-70
2021/06/07 01:00:06;;;;;;;9.82;5.73;;;;;;;16.12;72.93;98935.11;384476;106;2029130;-71
2021/06/07 01:01:45;;;;;;;8.84;5.38;;;;;;;16.01;72.77;98934.20;371150;107;1961811;-71
2021/06/07 01:03:27;;;;;;;10.77;5.61;;;;;;;15.97;72.95;98933.06;359198;110;1961997;-71
2021/06/07 01:05:14;;;;;;;11.87;5.28;;;;;;;16.10;72.76;98929.09;401337;103;2042921;-71
2021/06/07 01:06:52;;;;;;;9.61;5.37;;;;;;;15.98;72.81;98931.16;380285;105;1962024;-71
2021/06/07 01:08:38;;;;;;;8.36;4.89;;;;;;;16.13;72.57;98928.56;409313;101;2046012;-72
2021/06/07 01:10:18;;;;;;;10.21;5.40;;;;;;;16.03;72.44;98929.29;345777;103;2713921;-72
2021/06/07 01:12:03;;;;;;;10.02;5.84;;;;;;;16.07;72.92;98939.69;406716;100;2047035;-72
2021/06/07 01:13:44;;;;;;;9.96;6.11;;;;;;;15.98;72.64;98933.87;384860;103;1962026;-70
2021/06/07 01:15:29;;;;;;;10.13;5.42;;;;;;;16.10;72.68;98937.27;349840;107;2082918;-71
2021/06/07 01:17:09;;;;;;;8.64;5.35;;;;;;;15.99;72.72;98938.27;366952;108;1961986;-71
2021/06/07 01:18:47;;;;;;;9.77;5.61;;;;;;;16.00;72.46;98935.27;363575;109;1961971;-71
2021/06/07 01:20:34;;;;;;;9.92;5.92;;;;;;;16.09;72.64;98942.95;400711;103;2047052;-70
2021/06/07 01:22:12;;;;;;;9.08;5.23;;;;;;;15.98;72.54;98945.62;381160;105;1962001;-71
2021/06/07 01:23:52;;;;;;;9.24;5.57;;;;;;;15.53;72.43;98872.44;381718;104;1961874;-70
2021/06/07 01:25:35;;;;;;;8.03;5.27;;;;;;;15.93;72.72;98951.02;381200;104;1961991;-71
2021/06/07 01:27:21;;;;;;;10.10;6.23;;;;;;;16.00;72.98;98953.52;391474;105;2026930;-70
2021/06/07 01:29:00;;;;;;;8.96;5.93;;;;;;;15.95;72.76;98950.74;370341;107;1961986;-71
2021/06/07 01:30:43;;;;;;;11.68;6.05;;;;;;;15.96;72.51;98949.69;330458;107;2702832;-70
2021/06/07 01:32:29;;;;;;;11.36;6.46;;;;;;;16.08;72.51;98952.22;382888;106;2048010;-70
2021/06/07 01:34:08;;;;;;;9.32;5.26;;;;;;;15.95;72.52;98957.01;369206;108;1961991;-70
2021/06/07 01:35:57;;;;;;;10.24;5.62;;;;;;;15.97;72.65;98957.58;409869;101;2046994;-71
2021/06/07 01:37:36;;;;;;;11.48;6.01;;;;;;;15.87;72.76;98959.39;369906;103;2860969;-70
2021/06/07 01:39:26;;;;;;;9.06;5.82;;;;;;;15.97;72.78;98956.77;401084;103;2047076;-71
2021/06/07 01:41:05;;;;;;;10.51;5.77;;;;;;;15.89;72.54;98958.05;382115;105;1962013;-71
2021/06/07 01:42:44;;;;;;;11.19;5.76;;;;;;;15.89;72.60;98957.23;373370;105;1962075;-71
2021/06/07 01:44:23;;;;;;;11.47;6.28;;;;;;;15.80;72.82;98959.61;378932;105;1961878;-72
2021/06/07 01:46:03;;;;;;;10.51;5.83;;;;;;;15.83;72.87;98961.81;377999;105;1962057;-71
2021/06/07 01:47:48;;;;;;;10.69;5.59;;;;;;;15.86;73.28;98961.30;394470;103;2047899;-72
2021/06/07 01:49:26;;;;;;;10.17;5.20;;;;;;;15.74;73.20;98960.62;377450;107;1961910;-71
2021/06/07 01:51:14;;;;;;;10.03;5.36;;;;;;;15.77;73.52;98955.50;385752;106;2048924;-71
2021/06/07 01:52:55;;;;;;;9.37;4.35;;;;;;;15.76;73.33;98950.30;365986;108;1962005;-73
2021/06/07 01:54:41;;;;;;;10.37;5.49;;;;;;;16.02;72.77;98954.09;408083;101;2046870;-71
2021/06/07 01:56:20;;;;;;;9.44;5.43;;;;;;;15.92;72.82;98956.71;377463;105;1961896;-71
2021/06/07 01:58:00;;;;;;;9.69;4.77;;;;;;;15.91;72.97;98957.80;363344;105;1961997;-74
2021/06/07 01:59:45;;;;;;;8.90;4.98;;;;;;;16.08;72.60;98946.77;411974;101;2046944;-71
2021/06/07 02:01:26;;;;;;;9.29;4.32;;;;;;;16.01;72.34;98950.55;354752;103;2876994;-70
2021/06/07 02:03:06;;;;;;;11.07;4.98;;;;;;;16.01;72.39;98947.82;319170;104;2317979;-70
2021/06/07 02:04:52;;;;;;;7.63;4.62;;;;;;;16.15;72.31;98950.11;400607;103;2046997;-69
2021/06/07 02:06:33;;;;;;;12.81;5.44;;;;;;;16.03;72.21;98951.08;380215;105;1960907;-71
2021/06/07 02:08:21;;;;;;;9.53;4.93;;;;;;;16.18;72.15;98946.86;406791;101;2046052;-71
2021/06/07 02:10:08;;;;;;;8.46;4.52;;;;;;;16.22;71.96;98954.27;365904;103;2076028;-71
2021/06/07 02:12:04;;;;;;;9.29;4.80;;;;;;;16.12;71.94;98958.81;382479;105;1961944;-69
2021/06/07 02:13:57;;;;;;;8.99;4.44;;;;;;;16.27;71.83;98961.64;410730;100;2046029;-70
2021/06/07 02:15:35;;;;;;;9.71;4.43;;;;;;;16.15;71.76;98970.00;388884;103;1962008;-71
2021/06/07 02:17:21;;;;;;;10.66;4.22;;;;;;;16.34;71.63;98961.43;406508;100;2046778;-70
2021/06/07 02:19:01;;;;;;;7.62;4.44;;;;;;;16.18;71.76;98955.85;385633;102;1961995;-71
2021/06/07 02:20:47;;;;;;;7.78;4.29;;;;;;;16.34;71.69;98961.43;346235;105;2847993;-71
2021/06/07 02:22:26;;;;;;;10.38;4.75;;;;;;;16.23;71.67;98964.07;373215;106;1963940;-70
2021/06/07 02:24:25;;;;;;;8.76;4.07;;;;;;;16.22;72.15;98961.59;395259;103;2046929;-70
2021/06/07 02:26:03;;;;;;;8.56;4.22;;;;;;;16.10;71.81;98956.33;371122;107;1962037;-70
2021/06/07 02:27:49;;;;;;;8.44;4.83;;;;;;;16.34;71.81;98962.25;386667;101;2046004;-71
2021/06/07 02:29:28;;;;;;;9.27;4.51;;;;;;;16.25;71.49;98972.00;385401;104;1962047;-71
2021/06/07 02:31:14;;;;;;;9.38;4.71;;;;;;;16.39;71.35;98975.91;369186;108;3051801;-71
2021/06/07 02:32:54;;;;;;;7.13;4.19;;;;;;;16.28;71.33;98979.65;359323;110;1961875;-70
2021/06/07 02:34:53;;;;;;;8.51;5.08;;;;;;;16.39;71.34;98977.83;402621;101;2047048;-71
2021/06/07 02:36:35;;;;;;;10.21;4.26;;;;;;;16.30;71.18;98974.77;355975;103;1961900;-69
2021/06/07 02:38:21;;;;;;;8.86;4.59;;;;;;;16.46;71.13;98979.25;402530;103;2045964;-71
2021/06/07 02:40:00;;;;;;;8.83;4.57;;;;;;;16.36;71.04;98981.08;383334;105;1962048;-71
2021/06/07 02:41:48;;;;;;;8.97;4.73;;;;;;;16.56;70.75;98977.66;409164;101;2046923;-71
2021/06/07 02:43:27;;;;;;;9.16;4.37;;;;;;;16.49;70.53;98986.91;381059;105;1961971;-71
2021/06/07 02:45:06;;;;;;;8.59;4.93;;;;;;;16.49;70.53;98984.17;388505;102;1961985;-73
2021/06/07 02:46:45;;;;;;;8.72;4.14;;;;;;;16.49;70.40;98989.63;344391;103;2758177;-71
2021/06/07 02:48:31;;;;;;;9.71;4.43;;;;;;;16.65;70.22;98987.02;351632;106;2584061;-71
2021/06/07 02:50:14;;;;;;;8.56;3.84;;;;;;;16.55;70.12;98984.22;369079;108;1962053;-71
2021/06/07 02:52:01;;;;;;;7.73;4.07;;;;;;;16.37;71.09;98982.71;393461;103;2028985;-72
2021/06/07 02:53:40;;;;;;;6.85;4.15;;;;;;;16.24;71.14;98984.78;376376;106;1964992;-71
2021/06/07 02:55:33;;;;;;;7.59;4.26;;;;;;;16.41;71.05;98986.57;393265;104;2046005;-70
2021/06/07 02:57:13;;;;;;;7.14;3.79;;;;;;;16.34;70.96;98980.51;374175;106;1962044;-68
2021/06/07 02:58:59;;;;;;;7.55;3.95;;;;;;;16.53;71.02;98994.55;391651;104;2046049;-71
2021/06/07 03:00:44;;;;;;;7.59;4.12;;;;;;;16.48;70.82;98987.15;376130;107;1961994;-73
2021/06/07 03:02:30;;;;;;;7.60;4.22;;;;;;;16.89;70.00;98988.28;380486;107;2038036;-70
2021/06/07 03:04:09;;;;;;;7.67;4.04;;;;;;;16.71;70.30;98988.69;361622;109;1962067;-71
2021/06/07 03:05:49;;;;;;;7.94;4.60;;;;;;;16.81;69.97;98986.06;350881;109;1961857;-71
2021/06/07 03:07:35;;;;;;;7.96;3.52;;;;;;;17.09;69.29;98984.02;405245;101;2047080;-72
2021/06/07 03:09:13;;;;;;;8.79;5.23;;;;;;;17.02;69.09;98980.73;384865;104;1962021;-71
2021/06/07 03:10:56;;;;;;;8.81;4.73;;;;;;;17.13;69.10;98982.41;375181;103;2897018;-71
2021/06/07 03:12:45;;;;;;;8.88;4.45;;;;;;;17.32;68.74;98971.84;326654;106;2258995;-69
2021/06/07 03:14:24;;;;;;;8.84;4.80;;;;;;;17.22;68.48;98975.34;339689;109;1962024;-70
2021/06/07 03:16:04;;;;;;;7.03;4.46;;;;;;;17.20;68.00;98982.16;369506;109;1964011;-70
2021/06/07 03:17:50;;;;;;;8.59;5.18;;;;;;;17.21;68.64;98981.91;404732;101;2046030;-71
2021/06/07 03:19:29;;;;;;;9.46;5.16;;;;;;;17.09;68.54;98978.56;334330;103;2822983;-69
2021/06/07 03:21:15;;;;;;;8.48;5.56;;;;;;;17.16;68.67;98972.87;402514;103;2041976;-72
2021/06/07 03:22:55;;;;;;;10.97;6.42;;;;;;;17.03;68.43;98972.26;325084;106;2858970;-72
2021/06/07 03:24:41;;;;;;;10.78;6.13;;;;;;;17.08;68.60;98975.02;400962;103;2047075;-71
2021/06/07 03:26:21;;;;;;;8.99;5.92;;;;;;;16.94;68.32;98973.86;341264;105;2328969;-71
2021/06/07 03:28:00;;;;;;;8.78;6.23;;;;;;;16.85;68.26;98972.70;374952;106;1962872;-72
2021/06/07 03:29:46;;;;;;;13.46;6.83;;;;;;;16.82;69.01;98979.50;362423;105;2454031;-71
2021/06/07 03:31:24;;;;;;;11.56;6.79;;;;;;;16.64;69.52;98972.54;375519;107;1963942;-73
2021/06/07 03:33:16;;;;;;;15.80;6.61;;;;;;;16.66;69.63;98972.29;364851;106;2340961;-72
2021/06/07 03:35:03;;;;;;;13.76;6.52;;;;;;;16.59;69.81;98975.26;412297;99;2047101;-72
2021/06/07 03:37:01;;;;;;;11.92;6.93;;;;;;;16.43;70.08;98974.33;339024;101;2894156;-72
2021/06/07 03:38:46;;;;;;;9.14;6.63;;;;;;;16.51;70.44;98977.63;370096;100;2047064;-73
2021/06/07 03:40:30;;;;;;;10.39;6.19;;;;;;;16.38;70.34;98973.44;390469;103;1962033;-72
2021/06/07 03:42:10;;;;;;;8.97;5.03;;;;;;;16.34;70.49;98975.06;389035;103;1964014;-73
2021/06/07 03:43:49;;;;;;;9.63;5.23;;;;;;;16.26;71.09;98977.17;383284;103;1961972;-73
2021/06/07 03:45:34;;;;;;;11.93;5.32;;;;;;;16.41;71.21;98979.21;393296;104;2047061;-72
2021/06/07 03:47:13;;;;;;;8.88;5.04;;;;;;;16.36;71.15;98979.17;339904;107;2586994;-72
2021/06/07 03:48:53;;;;;;;8.17;5.09;;;;;;;16.49;70.97;98977.91;365637;110;1963963;-71
2021/06/07 03:50:33;;;;;;;7.43;4.92;;;;;;;16.62;70.84;98976.64;367825;109;1962052;-72
2021/06/07 03:52:19;;;;;;;10.37;4.68;;;;;;;16.89;70.57;98982.83;399707;103;2047957;-72
2021/06/07 03:53:58;;;;;;;13.21;5.34;;;;;;;16.85;70.45;98983.61;376309;105;1961920;-72
2021/06/07 03:55:47;;;;;;;9.10;4.80;;;;;;;17.18;69.83;98981.63;397656;101;2911968;-72
2021/06/07 03:57:26;;;;;;;10.96;5.03;;;;;;;17.13;69.52;98979.69;356884;103;2520022;-73
2021/06/07 03:59:13;;;;;;;8.70;4.81;;;;;;;17.33;69.33;98984.39;408982;101;2046942;-71
2021/06/07 04:00:52;;;;;;;8.77;5.26;;;;;;;17.20;68.85;98988.45;385688;103;1962992;-72
2021/06/07 04:02:31;;;;;;;14.44;7.43;;;;;;;17.09;68.96;98984.86;385357;103;1962033;-71
2021/06/07 04:04:17;;;;;;;10.86;7.12;;;;;;;16.98;69.47;98987.78;328678;106;2283060;-72
2021/06/07 04:05:56;;;;;;;9.82;6.39;;;;;;;16.77;69.60;98993.11;374565;107;1961994;-71
2021/06/07 04:07:35;;;;;;;10.93;7.13;;;;;;;16.61;70.21;98992.16;372702;106;1962009;-72
2021/06/07 04:09:21;;;;;;;9.92;6.76;;;;;;;16.61;70.58;98994.87;390398;103;2046857;-72
2021/06/07 04:11:00;;;;;;;10.09;6.56;;;;;;;16.44;70.71;98996.95;375786;107;1962008;-72
2021/06/07 04:12:39;;;;;;;8.49;5.64;;;;;;;16.32;70.98;99004.47;372632;106;1962002;-71
2021/06/07 04:14:24;;;;;;;10.06;5.89;;;;;;;16.34;72.06;99003.13;376908;103;2049961;-72
2021/06/07 04:16:04;;;;;;;9.41;5.00;;;;;;;16.26;71.76;99004.42;382935;105;1961881;-71
2021/06/07 04:17:44;;;;;;;9.45;5.46;;;;;;;16.33;71.95;99008.86;381249;103;1961977;-72
2021/06/07 04:19:22;;;;;;;9.06;5.26;;;;;;;16.31;71.60;98990.03;382402;104;1961992;-72
2021/06/07 04:21:10;;;;;;;9.77;5.72;;;;;;;16.60;71.51;98998.70;388842;106;2040938;-72
2021/06/07 04:22:50;;;;;;;9.11;5.11;;;;;;;16.54;71.27;99001.64;371817;107;1966853;-73
2021/06/07 04:24:31;;;;;;;9.41;5.09;;;;;;;16.65;71.20;98997.92;369822;108;1961974;-73
2021/06/07 04:26:18;;;;;;;8.72;4.87;;;;;;;16.90;70.58;99009.02;337046;107;2841031;-72
2021/06/07 04:27:59;;;;;;;11.07;5.28;;;;;;;16.84;70.43;99001.08;361450;109;1961945;-71
2021/06/07 04:29:48;;;;;;;8.97;5.34;;;;;;;17.11;70.20;99004.50;401758;103;2047896;-73
2021/06/07 04:31:28;;;;;;;10.94;5.84;;;;;;;17.02;70.23;98995.19;383182;105;1963999;-72
2021/06/07 04:33:08;;;;;;;8.21;5.31;;;;;;;17.13;69.82;99004.25;378563;106;1961920;-72
2021/06/07 04:34:53;;;;;;;10.47;5.85;;;;;;;17.36;69.10;99005.73;411369;101;2046997;-72
2021/06/07 04:36:32;;;;;;;13.51;6.98;;;;;;;17.27;69.05;99005.39;389091;103;1960931;-73
2021/06/07 04:38:18;;;;;;;11.49;6.96;;;;;;;17.44;69.07;99010.67;411622;101;2046058;-71
2021/06/07 04:39:56;;;;;;;14.33;7.17;;;;;;;17.35;69.13;99009.52;372313;103;1961890;-72
2021/06/07 04:41:42;;;;;;;10.39;7.38;;;;;;;17.46;69.11;99010.39;392171;105;2046967;-71
2021/06/07 04:43:22;;;;;;;12.52;7.78;;;;;;;17.34;68.76;99008.70;351042;107;2867007;-71
2021/06/07 04:45:07;;;;;;;20.21;9.33;;;;;;;17.42;68.49;99009.30;366871;101;2045999;-73
2021/06/07 04:46:46;;;;;;;13.62;9.23;;;;;;;17.31;68.42;99011.98;388899;103;1961998;-71
2021/06/07 04:48:31;;;;;;;13.44;8.77;;;;;;;17.30;68.66;99012.23;392588;105;2045825;-73
2021/06/07 04:50:14;;;;;;;14.58;8.50;;;;;;;17.15;68.40;99018.45;377821;106;1961986;-73
2021/06/07 04:51:53;;;;;;;12.29;8.64;;;;;;;17.17;68.51;99024.45;352196;107;2365954;-71
2021/06/07 04:53:39;;;;;;;13.20;7.57;;;;;;;17.14;69.45;99016.80;407175;101;2046988;-72
2021/06/07 04:55:19;;;;;;;10.84;7.34;;;;;;;17.04;68.76;99014.84;372488;103;1963956;-72
2021/06/07 04:57:05;;;;;;;13.00;7.61;;;;;;;17.12;68.89;99024.41;389852;105;2046998;-72
2021/06/07 04:58:52;;;;;;;11.92;8.41;;;;;;;17.09;69.62;99028.52;402712;99;2995005;-72
2021/06/07 05:00:34;;;;;;;11.44;7.19;;;;;;;16.98;69.90;99024.07;393072;101;1965285;-71
2021/06/07 05:02:14;;;;;;;11.58;7.64;;;;;;;16.97;70.56;99033.35;390176;101;1963804;-71
2021/06/07 05:04:00;;;;;;;9.83;7.36;;;;;;;17.06;71.20;99022.75;408755;101;2042037;-71
2021/06/07 05:05:39;;;;;;;11.88;7.28;;;;;;;16.93;70.80;99026.77;389107;103;1962032;-71
2021/06/07 05:07:18;;;;;;;9.10;6.06;;;;;;;16.89;70.92;99026.48;389248;103;1962051;-69
2021/06/07 05:09:04;;;;;;;9.87;5.97;;;;;;;16.98;71.08;99039.63;384361;104;2963054;-72
2021/06/07 05:10:43;;;;;;;10.06;6.21;;;;;;;16.89;71.23;99031.12;373722;106;1962068;-73
2021/06/07 05:12:29;;;;;;;10.62;5.64;;;;;;;17.06;70.89;99018.11;406625;100;2047061;-70
2021/06/07 05:14:07;;;;;;;10.94;5.39;;;;;;;17.00;71.00;99027.36;388391;102;1961882;-71
2021/06/07 05:15:46;;;;;;;10.59;5.64;;;;;;;17.03;70.80;99026.83;378093;102;2896075;-70
2021/06/07 05:17:45;;;;;;;9.49;5.18;;;;;;;17.40;74.93;99023.20;380850;106;2046951;-72
2021/06/07 05:19:23;;;;;;;9.41;5.34;;;;;;;17.45;72.72;99025.14;345405;109;1962042;-71
2021/06/07 05:21:10;;;;;;;10.17;5.36;;;;;;;17.69;70.59;99026.31;403904;103;2046929;-71
2021/06/07 05:22:56;;;;;;;8.95;5.57;;;;;;;17.68;70.60;99026.60;355451;104;1984919;-71
2021/06/07 05:24:55;;;;;;;9.18;5.43;;;;;;;17.97;69.43;99026.98;346716;106;2512134;-71
2021/06/07 05:26:36;;;;;;;11.72;6.44;;;;;;;17.96;68.93;99019.86;318134;106;2888948;-72
2021/06/07 05:28:24;;;;;;;10.31;6.36;;;;;;;18.25;68.40;99017.44;403261;103;2045782;-72
2021/06/07 05:30:03;;;;;;;10.43;6.32;;;;;;;18.14;68.26;99022.08;383242;105;1961995;-72
2021/06/07 05:31:42;;;;;;;10.47;5.97;;;;;;;18.13;67.37;99020.45;384684;103;1962095;-73
2021/06/07 05:33:27;;;;;;;12.08;7.30;;;;;;;18.06;67.77;99017.15;385193;107;2047039;-72
2021/06/07 05:35:06;;;;;;;13.51;6.83;;;;;;;17.90;68.39;99019.03;364012;109;1962069;-72
2021/06/07 05:36:46;;;;;;;13.96;7.12;;;;;;;17.82;68.46;99018.74;370244;108;1961976;-72
2021/06/07 05:38:32;;;;;;;11.94;8.37;;;;;;;17.86;68.84;99019.83;358075;108;2047897;-72
2021/06/07 05:40:13;;;;;;;14.41;7.91;;;;;;;17.74;68.63;99026.33;367845;108;1962952;-72
2021/06/07 05:41:58;;;;;;;13.61;8.64;;;;;;;17.85;68.99;99020.94;398092;103;2047023;-72
2021/06/07 05:43:37;;;;;;;13.20;7.64;;;;;;;17.75;68.77;99027.14;330586;107;2043020;-74
2021/06/07 05:45:23;;;;;;;12.85;8.58;;;;;;;17.95;68.65;99026.42;346113;101;2253964;-74
2021/06/07 05:47:02;;;;;;;14.67;8.23;;;;;;;17.85;68.29;99031.86;352074;103;2602972;-72
2021/06/07 05:48:41;;;;;;;12.58;8.18;;;;;;;17.88;68.39;99036.78;381725;103;1962028;-72
2021/06/07 05:50:28;;;;;;;13.34;7.80;;;;;;;18.04;68.45;99032.17;367318;103;2540974;-73
2021/06/07 05:52:08;;;;;;;15.05;8.43;;;;;;;17.91;68.61;99028.04;329038;105;2838949;-73
2021/06/07 05:53:53;;;;;;;11.60;8.03;;;;;;;18.09;68.58;99027.53;346752;105;2125323;-72
2021/06/07 05:55:37;;;;;;;10.87;7.27;;;;;;;18.01;68.26;99023.42;372890;107;1962899;-74
2021/06/07 05:57:17;;;;;;;13.04;8.47;;;;;;;18.06;67.89;99033.55;374895;106;1961868;-72
2021/06/07 05:58:59;;;;;;;10.43;7.72;;;;;;;18.09;67.99;99023.98;369096;108;1964835;-71
2021/06/07 06:00:41;;;;;;;13.16;7.47;;;;;;;18.16;67.81;99030.02;329849;108;2644047;-73
2021/06/07 06:02:28;;;;;;;13.96;7.62;;;;;;;18.40;67.33;99033.05;397692;103;2046014;-72
2021/06/07 06:04:06;;;;;;;17.00;7.31;;;;;;;18.32;67.23;99037.14;374423;105;1962000;-72
2021/06/07 06:05:45;;;;;;;11.18;7.03;;;;;;;18.32;67.47;99026.20;361315;105;1961911;-72
2021/06/07 06:07:24;;;;;;;12.61;6.94;;;;;;;17.89;67.07;98950.98;333403;107;2551096;-72
2021/06/07 06:09:10;;;;;;;10.52;7.51;;;;;;;18.38;67.36;99030.57;397967;101;2048007;-74
2021/06/07 06:10:49;;;;;;;10.89;7.68;;;;;;;18.24;67.86;99033.03;357073;103;2410042;-73
2021/06/07 06:12:34;;;;;;;11.74;8.07;;;;;;;18.36;67.88;99038.22;383255;105;2946002;-73
2021/06/07 06:14:15;;;;;;;14.71;8.05;;;;;;;18.22;68.12;99029.73;373223;106;1962050;-71
2021/06/07 06:16:01;;;;;;;11.67;7.60;;;;;;;18.23;68.72;99038.75;407857;100;2049742;-72
2021/06/07 06:17:40;;;;;;;12.16;7.28;;;;;;;18.08;68.92;99030.55;309280;103;2300890;-72
2021/06/07 06:19:25;;;;;;;14.45;8.37;;;;;;;18.16;69.91;99032.75;386053;101;2047112;-72
2021/06/07 06:21:06;;;;;;;12.92;8.18;;;;;;;18.01;69.28;99037.08;315531;103;2254021;-72
2021/06/07 06:22:46;;;;;;;14.16;8.37;;;;;;;17.97;69.47;99035.18;382256;103;1962081;-72
2021/06/07 06:24:25;;;;;;;12.09;8.39;;;;;;;18.04;69.16;99024.79;385078;103;1961034;-72
2021/06/07 06:26:16;;;;;;;12.90;8.18;;;;;;;18.19;69.19;99019.35;390664;104;2046015;-72
2021/06/07 06:27:56;;;;;;;11.04;7.03;;;;;;;18.12;69.49;99026.98;366871;104;1959732;-73
2021/06/07 06:29:35;;;;;;;13.38;7.14;;;;;;;18.19;68.74;99033.02;353850;112;1962039;-72
2021/06/07 06:31:27;;;;;;;11.19;7.07;;;;;;;18.17;68.72;99032.47;354581;112;1962788;-72
2021/06/07 06:33:12;;;;;;;11.60;8.24;;;;;;;18.19;69.74;99035.75;387798;106;2045073;-71
2021/06/07 06:34:52;;;;;;;14.71;7.87;;;;;;;18.06;69.96;99036.28;326454;107;2825988;-72
2021/06/07 06:36:31;;;;;;;12.19;7.38;;;;;;;18.07;69.71;99037.09;374161;106;1963001;-72
2021/06/07 06:38:30;;;;;;;11.43;7.54;;;;;;;18.09;69.58;99035.73;360861;110;1964941;-72
2021/06/07 06:40:17;;;;;;;13.42;7.88;;;;;;;18.36;69.57;99037.41;392510;104;2046988;-74
2021/06/07 06:41:56;;;;;;;11.51;7.08;;;;;;;18.36;69.04;99040.14;373683;107;1961923;-73
2021/06/07 06:43:41;;;;;;;10.81;7.00;;;;;;;18.56;68.67;99040.16;410436;101;2045797;-73
2021/06/07 06:45:22;;;;;;;9.93;5.99;;;;;;;18.49;68.45;99034.13;391828;103;1962894;-72
2021/06/07 06:47:07;;;;;;;10.67;6.92;;;;;;;18.58;68.11;99037.97;401018;103;2045978;-71
2021/06/07 06:48:45;;;;;;;11.09;6.88;;;;;;;18.48;68.41;99037.97;373824;108;1963067;-71
2021/06/07 06:50:34;;;;;;;10.88;6.54;;;;;;;18.71;67.83;99046.70;405380;101;2047061;-72
2021/06/07 06:52:13;;;;;;;12.21;7.60;;;;;;;18.63;67.63;99048.10;389267;103;1961985;-72
2021/06/07 06:53:59;;;;;;;11.72;7.38;;;;;;;18.68;68.01;99054.39;345666;105;2833001;-73
2021/06/07 06:55:38;;;;;;;12.59;7.24;;;;;;;18.61;67.94;99042.89;377556;107;1963936;-73
2021/06/07 06:57:18;;;;;;;14.46;8.43;;;;;;;18.71;67.53;99041.23;373072;107;1961850;-73
2021/06/07 06:59:05;;;;;;;10.15;6.04;;;;;;;18.89;66.88;99040.70;340503;102;2265936;-72
2021/06/07 07:00:46;;;;;;;11.79;7.68;;;;;;;18.85;66.69;99043.17;316212;103;2251946;-72
2021/06/07 07:02:28;;;;;;;16.77;7.98;;;;;;;18.99;66.67;99048.08;309514;105;2246994;-71
2021/06/07 07:04:06;;;;;;;12.24;6.57;;;;;;;19.17;65.69;99035.73;385271;103;1962001;-72
2021/06/07 07:05:55;;;;;;;11.46;5.98;;;;;;;19.52;65.19;99038.34;390047;106;2047025;-72
2021/06/07 07:07:34;;;;;;;10.21;6.16;;;;;;;19.49;64.50;99046.31;366922;108;1962004;-73
2021/06/07 07:09:21;;;;;;;9.11;5.88;;;;;;;19.73;63.55;99046.51;380332;101;2432976;-73
2021/06/07 07:11:00;;;;;;;11.79;5.86;;;;;;;19.60;63.27;99030.64;322812;102;2241021;-71
2021/06/07 07:12:40;;;;;;;11.56;6.47;;;;;;;19.67;63.93;99028.46;389803;103;1961977;-72
2021/06/07 07:14:26;;;;;;;10.14;6.26;;;;;;;20.01;63.35;99019.52;379288;105;2046070;-71
2021/06/07 07:16:06;;;;;;;12.02;6.41;;;;;;;19.91;62.71;99010.23;315393;106;2200866;-73
2021/06/07 07:17:45;;;;;;;10.08;5.51;;;;;;;20.04;61.85;99022.50;365314;106;2948894;-73
2021/06/07 07:19:33;;;;;;;13.26;6.23;;;;;;;20.31;60.46;99038.48;370296;104;2048012;-73
2021/06/07 07:21:18;;;;;;;13.22;6.51;;;;;;;20.41;60.80;99027.44;402750;102;2046890;-71
2021/06/07 07:23:15;;;;;;;11.93;6.07;;;;;;;20.35;60.81;99031.34;378370;105;1963943;-72
2021/06/07 07:25:03;;;;;;;12.96;6.99;;;;;;;20.82;59.97;99026.29;358673;101;2794978;-72
2021/06/07 07:26:42;;;;;;;7.48;4.66;;;;;;;20.78;60.01;99034.30;390653;103;1961931;-72
2021/06/07 07:28:28;;;;;;;7.36;4.49;;;;;;;21.15;58.13;99030.09;368644;101;2644092;-73
2021/06/07 07:30:10;;;;;;;9.18;4.69;;;;;;;21.08;58.02;99024.92;390022;103;1963956;-72
2021/06/07 07:31:49;;;;;;;9.96;5.07;;;;;;;21.29;57.72;99033.77;316639;103;2309075;-72
2021/06/07 07:33:38;;;;;;;16.37;5.42;;;;;;;21.63;56.47;99023.78;342998;105;2161094;-72
2021/06/07 07:35:17;;;;;;;14.87;4.78;;;;;;;21.66;56.96;99026.75;374547;105;1963028;-71
2021/06/07 07:36:56;;;;;;;6.79;3.24;;;;;;;21.90;55.30;99040.45;375342;106;1962059;-71
2021/06/07 07:38:42;;;;;;;10.57;4.29;;;;;;;22.28;53.81;99020.41;390911;104;2046025;-72
2021/06/07 07:40:22;;;;;;;5.22;2.73;;;;;;;22.33;54.39;99025.83;366846;107;1963017;-72
2021/06/07 07:42:03;;;;;;;8.64;3.03;;;;;;;22.25;51.33;99026.52;375434;107;1961466;-71
2021/06/07 07:43:50;;;;;;;9.24;3.22;;;;;;;22.20;52.07;99023.84;392737;104;2047990;-71
2021/06/07 07:45:33;;;;;;;7.93;3.21;;;;;;;21.98;51.71;99025.23;371135;106;1961958;-73
2021/06/07 07:47:20;;;;;;;7.37;3.45;;;;;;;21.93;52.60;99026.11;409223;101;2045908;-72
2021/06/07 07:48:58;;;;;;;9.03;3.90;;;;;;;21.76;52.89;99031.31;383925;105;1962016;-72
2021/06/07 07:50:44;;;;;;;10.49;4.34;;;;;;;21.86;54.04;99028.42;390040;104;2046091;-71
2021/06/07 07:52:23;;;;;;;13.23;4.42;;;;;;;21.81;53.85;99027.69;317742;106;2173870;-71